Time;durP1;ratioP1;P1;durP2;ratioP2;P2;SDS_P1;SDS_P2;PMS_P1;PMS_P2;Temp;Humidity;BMP_temperature;BMP_pressure;BME280_temperature;BME280_humidity;BME280_pressure;Samples;Min_cycle;Max_cycle;Signal;HPM_P1;HPM_P2
2022/10/06 00:01:11;;;;;;;3.88;0.30;;;13.30;99.90;;;;;;4998551;28;20029;-86
2022/10/06 00:03:38;;;;;;;3.65;0.28;;;13.30;99.90;;;;;;5007676;28;20057;-85
2022/10/06 00:06:05;;;;;;;4.28;0.30;;;13.30;99.90;;;;;;4990767;28;20378;-86
2022/10/06 00:08:33;;;;;;;3.65;0.40;;;13.30;99.90;;;;;;5023398;28;20045;-85
2022/10/06 00:10:58;;;;;;;5.22;0.30;;;13.30;99.90;;;;;;5010430;28;20030;-85
2022/10/06 00:13:25;;;;;;;4.47;0.20;;;13.40;99.90;;;;;;5019418;28;20034;-86
2022/10/06 00:15:51;;;;;;;5.97;0.32;;;13.40;99.90;;;;;;5007652;28;20057;-86
2022/10/06 00:18:16;;;;;;;5.65;0.50;;;13.40;99.90;;;;;;5008190;28;20111;-84
2022/10/06 00:20:42;;;;;;;5.03;0.30;;;13.40;99.90;;;;;;5006708;28;20478;-84
2022/10/06 00:23:08;;;;;;;3.70;0.30;;;13.40;99.90;;;;;;5007535;28;20022;-88
2022/10/06 00:25:34;;;;;;;9.15;0.43;;;13.40;99.90;;;;;;4990555;28;20467;-87
2022/10/06 00:28:00;;;;;;;3.88;0.30;;;13.40;99.90;;;;;;5009316;28;20152;-85
2022/10/06 00:30:27;;;;;;;5.68;0.30;;;13.40;99.90;;;;;;4994430;28;20483;-84
2022/10/06 00:32:59;;;;;;;4.25;0.22;;;13.40;99.90;;;;;;5010892;28;20054;-84
2022/10/06 00:35:31;;;;;;;3.88;0.20;;;13.30;99.90;;;;;;5009688;28;20034;-85
2022/10/06 00:37:57;;;;;;;4.72;0.20;;;13.20;99.90;;;;;;5009013;28;20043;-87
2022/10/06 00:40:23;;;;;;;3.97;0.20;;;13.20;99.90;;;;;;5011484;28;20037;-84
2022/10/06 00:42:55;;;;;;;3.20;0.30;;;13.10;99.90;;;;;;5010177;28;20074;-83
2022/10/06 00:45:30;;;;;;;2.88;0.30;;;13.00;99.90;;;;;;5006437;28;20109;-84
2022/10/06 00:48:01;;;;;;;1.65;0.20;;;13.00;99.90;;;;;;5011080;28;20030;-85
2022/10/06 00:50:28;;;;;;;2.15;0.10;;;12.90;99.90;;;;;;5025653;28;20061;-84
2022/10/06 00:52:54;;;;;;;2.75;0.20;;;12.90;99.90;;;;;;5009674;28;20034;-83
2022/10/06 00:55:21;;;;;;;3.45;0.30;;;12.80;99.90;;;;;;5010791;28;20033;-85
2022/10/06 00:57:47;;;;;;;4.43;0.43;;;12.80;99.90;;;;;;5009204;28;20486;-83
2022/10/06 01:00:13;;;;;;;1.95;0.17;;;12.80;99.90;;;;;;5025804;28;20030;-83
2022/10/06 01:02:57;;;;;;;3.03;0.20;;;12.80;99.90;;;;;;5008827;28;20037;-84
2022/10/06 01:05:30;;;;;;;4.38;0.20;;;12.80;99.90;;;;;;5008392;28;20038;-83
2022/10/06 01:07:56;;;;;;;2.10;0.25;;;12.80;99.90;;;;;;5013493;28;20049;-85
2022/10/06 01:10:22;;;;;;;2.65;0.20;;;12.80;99.90;;;;;;5005958;28;20084;-85
2022/10/06 01:12:48;;;;;;;5.72;0.30;;;12.70;99.90;;;;;;5009186;28;20038;-84
2022/10/06 01:15:15;;;;;;;5.38;0.40;;;12.70;99.90;;;;;;5023285;28;20032;-83
2022/10/06 01:18:02;;;;;;;4.22;0.22;;;12.70;99.90;;;;;;5013277;28;20038;-85
2022/10/06 01:20:29;;;;;;;4.20;0.30;;;12.70;99.90;;;;;;5004922;28;20117;-84
2022/10/06 01:23:00;;;;;;;4.45;0.30;;;12.70;99.90;;;;;;5009656;28;20434;-83
2022/10/06 01:25:27;;;;;;;5.18;0.40;;;12.70;99.90;;;;;;4990803;28;20495;-84
2022/10/06 01:27:54;;;;;;;5.22;0.32;;;12.60;99.90;;;;;;4992957;28;20022;-83
2022/10/06 01:30:31;;;;;;;6.13;0.40;;;12.60;99.90;;;;;;5009072;28;20034;-84
2022/10/06 01:32:57;;;;;;;5.82;0.40;;;12.60;99.90;;;;;;4986846;28;20497;-83
2022/10/06 01:35:23;;;;;;;8.68;1.83;;;12.50;99.90;;;;;;5022780;28;20601;-86
2022/10/06 01:37:49;;;;;;;4.20;0.30;;;12.50;99.90;;;;;;5024985;28;20030;-85
2022/10/06 01:40:15;;;;;;;3.13;0.30;;;12.40;99.90;;;;;;4991008;28;20037;-84
2022/10/06 01:42:41;;;;;;;6.32;0.50;;;12.40;99.90;;;;;;4992412;28;20045;-84
2022/10/06 01:45:07;;;;;;;5.82;0.32;;;12.40;99.90;;;;;;4992068;28;20049;-84
2022/10/06 01:47:33;;;;;;;5.78;0.50;;;12.40;99.90;;;;;;5009102;28;20029;-83
2022/10/06 01:49:59;;;;;;;7.32;0.30;;;12.20;99.90;;;;;;5007627;28;20026;-84
2022/10/06 01:52:27;;;;;;;6.03;0.40;;;12.20;99.90;;;;;;5008789;28;20588;-83
2022/10/06 01:54:53;;;;;;;3.50;0.20;;;12.20;99.90;;;;;;5008566;28;20029;-84
2022/10/06 01:57:20;;;;;;;3.58;0.20;;;12.10;99.90;;;;;;5008985;28;20469;-83
2022/10/06 01:59:46;;;;;;;4.72;0.20;;;12.10;99.90;;;;;;5008844;28;20129;-84
2022/10/06 02:02:12;;;;;;;7.68;0.55;;;12.10;99.90;;;;;;5022028;28;20026;-84
2022/10/06 02:04:38;;;;;;;5.13;0.95;;;12.10;99.90;;;;;;5024735;28;20037;-84
2022/10/06 02:07:04;;;;;;;9.55;0.43;;;12.10;99.90;;;;;;5025003;28;20030;-84
2022/10/06 02:09:38;;;;;;;3.00;0.45;;;12.10;99.90;;;;;;5008267;28;20037;-84
2022/10/06 02:12:04;;;;;;;4.95;0.25;;;12.10;99.90;;;;;;5007987;28;20026;-84
2022/10/06 02:14:31;;;;;;;4.68;0.20;;;12.10;99.90;;;;;;5007634;28;20096;-84
2022/10/06 02:16:57;;;;;;;6.68;0.30;;;12.20;99.90;;;;;;5008851;28;20030;-84
2022/10/06 02:19:23;;;;;;;6.47;0.25;;;12.20;99.90;;;;;;5010099;28;20518;-84
2022/10/06 02:21:49;;;;;;;2.05;0.10;;;12.00;99.90;;;;;;4992046;28;20113;-84
2022/10/06 02:24:14;;;;;;;5.05;0.20;;;12.00;99.90;;;;;;5007283;28;20029;-84
2022/10/06 02:26:40;;;;;;;2.83;0.15;;;12.00;99.90;;;;;;5008052;28;20029;-84
2022/10/06 02:29:06;;;;;;;6.15;0.20;;;11.90;99.90;;;;;;5008038;28;20026;-84
2022/10/06 02:31:31;;;;;;;3.67;0.20;;;11.80;99.90;;;;;;4987279;28;20030;-84
2022/10/06 02:33:57;;;;;;;2.92;0.10;;;11.80;99.90;;;;;;5006561;28;20026;-84
2022/10/06 02:36:23;;;;;;;2.40;0.20;;;11.70;99.90;;;;;;4991507;28;20087;-83
2022/10/06 02:38:49;;;;;;;1.52;0.20;;;11.70;99.90;;;;;;5007155;28;20437;-84
2022/10/06 02:41:15;;;;;;;1.50;0.17;;;11.80;99.90;;;;;;4991478;28;20699;-84
2022/10/06 02:43:41;;;;;;;2.58;0.20;;;11.60;99.90;;;;;;5007521;28;20372;-84
2022/10/06 02:46:10;;;;;;;8.20;0.20;;;11.60;99.90;;;;;;4991788;28;20026;-84
2022/10/06 02:48:38;;;;;;;5.15;0.28;;;11.60;99.90;;;;;;5012200;28;20033;-83
2022/10/06 02:51:11;;;;;;;5.18;0.20;;;11.60;99.90;;;;;;5023624;28;20036;-83
2022/10/06 02:53:37;;;;;;;5.05;0.20;;;11.60;99.90;;;;;;5023023;28;20029;-85
2022/10/06 02:56:11;;;;;;;3.60;0.70;;;11.60;99.90;;;;;;5008299;28;20108;-84
2022/10/06 02:58:41;;;;;;;6.57;0.22;;;11.50;99.90;;;;;;5008774;28;20064;-84
2022/10/06 03:01:22;;;;;;;5.35;0.30;;;11.50;99.90;;;;;;5023235;28;20467;-84
2022/10/06 03:03:51;;;;;;;4.72;0.30;;;11.50;99.90;;;;;;4991172;28;20478;-83
2022/10/06 03:06:22;;;;;;;3.75;0.25;;;11.40;99.90;;;;;;5006300;28;20535;-84
2022/10/06 03:09:00;;;;;;;3.40;0.20;;;11.40;99.90;;;;;;5006721;28;20022;-85
2022/10/06 03:11:31;;;;;;;2.08;0.20;;;11.30;99.90;;;;;;5007357;28;20032;-83
2022/10/06 03:13:58;;;;;;;3.72;0.22;;;11.30;99.90;;;;;;5013868;28;20541;-83
2022/10/06 03:16:28;;;;;;;3.70;0.20;;;11.30;99.90;;;;;;5006726;28;20403;-84
2022/10/06 03:18:57;;;;;;;5.38;0.38;;;11.40;99.90;;;;;;5005794;28;20395;-82
2022/10/06 03:21:28;;;;;;;4.32;0.32;;;11.30;99.90;;;;;;5007315;28;20108;-83
2022/10/06 03:23:56;;;;;;;3.33;0.30;;;11.40;99.90;;;;;;5006683;28;20064;-83
2022/10/06 03:26:26;;;;;;;1.55;0.30;;;11.30;99.90;;;;;;4988853;28;20068;-84
2022/10/06 03:28:53;;;;;;;3.70;0.30;;;11.30;99.90;;;;;;5007660;28;20034;-83
2022/10/06 03:31:19;;;;;;;3.25;0.30;;;11.30;99.90;;;;;;5007153;28;20382;-83
2022/10/06 03:33:45;;;;;;;2.35;0.25;;;11.20;99.90;;;;;;5007715;28;20026;-84
2022/10/06 03:36:14;;;;;;;3.63;0.20;;;11.20;99.90;;;;;;5007228;28;20037;-83
2022/10/06 03:38:41;;;;;;;2.15;0.20;;;11.20;99.90;;;;;;5007767;28;20459;-84
2022/10/06 03:41:08;;;;;;;5.00;0.25;;;11.30;99.90;;;;;;5008822;28;20076;-84
2022/10/06 03:43:35;;;;;;;5.03;0.30;;;11.20;99.90;;;;;;4990975;28;20049;-84
2022/10/06 03:46:01;;;;;;;2.47;0.25;;;11.20;99.90;;;;;;4990735;28;20029;-85
2022/10/06 03:48:30;;;;;;;5.45;0.40;;;11.20;99.90;;;;;;5007681;28;20451;-84
2022/10/06 03:51:01;;;;;;;3.95;0.20;;;11.10;99.90;;;;;;5006745;28;20054;-84
2022/10/06 03:53:28;;;;;;;2.80;0.20;;;11.10;99.90;;;;;;5007108;28;20034;-83
2022/10/06 03:56:08;;;;;;;4.68;0.43;;;11.00;99.90;;;;;;5006365;28;20057;-83
2022/10/06 03:58:39;;;;;;;1.95;0.20;;;11.10;99.90;;;;;;5006468;28;20048;-83
2022/10/06 04:01:11;;;;;;;5.47;0.20;;;11.00;99.90;;;;;;5006827;28;20056;-82
2022/10/06 04:03:37;;;;;;;2.10;0.20;;;11.10;99.90;;;;;;4992187;28;20033;-83
2022/10/06 04:06:06;;;;;;;2.92;0.20;;;11.00;99.90;;;;;;5004779;28;20026;-83
2022/10/06 04:08:33;;;;;;;3.95;0.30;;;11.00;99.90;;;;;;5010227;28;20041;-82
2022/10/06 04:11:06;;;;;;;4.72;0.30;;;11.00;99.90;;;;;;5010477;28;20018;-82
2022/10/06 04:13:32;;;;;;;4.70;0.30;;;11.10;99.90;;;;;;5010089;28;20042;-82
2022/10/06 04:15:58;;;;;;;3.50;0.20;;;11.10;99.90;;;;;;4993392;28;20026;-82
2022/10/06 04:18:24;;;;;;;2.35;0.20;;;11.00;99.90;;;;;;4993042;28;20034;-83
2022/10/06 04:20:58;;;;;;;5.75;0.30;;;11.10;99.90;;;;;;5009306;28;20378;-82
2022/10/06 04:23:24;;;;;;;4.68;0.30;;;11.00;99.90;;;;;;5023329;28;20061;-82
2022/10/06 04:25:49;;;;;;;4.82;0.65;;;11.00;99.90;;;;;;5010407;28;20076;-83
2022/10/06 04:28:15;;;;;;;4.57;0.70;;;11.00;99.90;;;;;;5009424;28;20034;-83
2022/10/06 04:30:41;;;;;;;5.05;0.22;;;11.00;99.90;;;;;;5007389;28;20030;-83
2022/10/06 04:33:06;;;;;;;5.88;0.38;;;11.00;99.90;;;;;;4993227;28;20494;-82
2022/10/06 04:35:32;;;;;;;5.35;0.35;;;11.00;99.90;;;;;;5009965;28;20496;-83
2022/10/06 04:37:58;;;;;;;6.20;0.60;;;10.90;99.90;;;;;;5010967;28;20479;-82
2022/10/06 04:40:24;;;;;;;4.20;0.30;;;10.90;99.90;;;;;;5009496;28;20065;-83
2022/10/06 04:42:50;;;;;;;5.90;0.40;;;10.90;99.90;;;;;;5010049;28;20077;-84
2022/10/06 04:45:16;;;;;;;2.55;0.20;;;10.80;99.90;;;;;;4992477;28;20518;-84
2022/10/06 04:47:42;;;;;;;3.63;0.40;;;10.80;99.90;;;;;;5010077;28;20478;-83
2022/10/06 04:50:09;;;;;;;5.80;0.40;;;10.90;99.90;;;;;;4993010;28;20025;-83
2022/10/06 04:52:34;;;;;;;3.60;0.20;;;10.80;99.90;;;;;;5009767;28;20032;-83
2022/10/06 04:55:00;;;;;;;6.60;0.63;;;10.70;99.90;;;;;;5010697;28;20099;-83
2022/10/06 04:57:26;;;;;;;1.90;0.20;;;10.70;99.90;;;;;;5008867;28;20033;-83
2022/10/06 05:02:38;;;;;;;3.28;0.20;;;10.70;99.90;;;;;;4995369;28;20449;-82
2022/10/06 05:05:05;;;;;;;3.00;0.22;;;10.70;99.90;;;;;;5007793;28;20168;-83
2022/10/06 05:07:37;;;;;;;2.88;0.20;;;10.60;99.90;;;;;;5015285;28;20030;-86
2022/10/06 05:10:03;;;;;;;5.45;0.30;;;10.70;99.90;;;;;;5007229;28;20053;-82
2022/10/06 05:12:30;;;;;;;5.15;0.20;;;10.70;99.90;;;;;;5007937;28;20560;-83
2022/10/06 05:14:56;;;;;;;3.65;0.30;;;10.70;99.90;;;;;;5008853;28;20026;-82
2022/10/06 05:17:22;;;;;;;4.57;0.20;;;10.70;99.90;;;;;;5006708;28;20113;-84
2022/10/06 05:19:49;;;;;;;3.28;0.50;;;10.60;99.90;;;;;;5008950;28;20119;-84
2022/10/06 05:22:15;;;;;;;4.20;0.40;;;10.60;99.90;;;;;;5008758;28;20115;-83
2022/10/06 05:24:41;;;;;;;13.20;0.43;;;10.60;99.90;;;;;;5000178;28;20030;-82
2022/10/06 05:27:06;;;;;;;5.88;0.45;;;10.60;99.90;;;;;;4990369;28;20109;-84
2022/10/06 05:29:34;;;;;;;2.95;0.20;;;10.50;99.90;;;;;;4990304;28;20046;-82
2022/10/06 05:32:00;;;;;;;3.28;0.20;;;10.50;99.90;;;;;;5005078;28;20386;-83
2022/10/06 05:34:27;;;;;;;5.32;0.32;;;10.60;99.90;;;;;;4993301;28;20456;-81
2022/10/06 05:36:54;;;;;;;11.07;0.57;;;10.50;99.90;;;;;;5003640;28;20022;-82
2022/10/06 05:39:20;;;;;;;2.63;0.20;;;10.60;99.90;;;;;;5022087;28;20057;-82
2022/10/06 05:41:50;;;;;;;4.63;0.40;;;10.40;99.90;;;;;;4991062;28;20057;-82
2022/10/06 05:44:16;;;;;;;5.78;0.95;;;10.50;99.90;;;;;;5004791;28;20056;-82
2022/10/06 05:46:43;;;;;;;4.50;0.32;;;10.50;99.90;;;;;;5008502;28;20276;-83
2022/10/06 05:49:10;;;;;;;3.85;0.25;;;10.50;99.90;;;;;;5009080;28;20117;-82
2022/10/06 05:51:39;;;;;;;7.57;0.40;;;10.40;99.90;;;;;;5024942;28;20541;-82
2022/10/06 05:54:13;;;;;;;9.57;0.38;;;10.40;99.90;;;;;;5007619;28;20041;-82
2022/10/06 05:56:39;;;;;;;6.28;0.30;;;10.40;99.90;;;;;;4991457;28;20034;-82
2022/10/06 05:59:05;;;;;;;1.77;0.15;;;10.40;99.90;;;;;;5008424;28;20034;-81
2022/10/06 06:01:34;;;;;;;3.00;0.28;;;10.40;99.90;;;;;;5006776;28;20208;-82
2022/10/06 06:04:05;;;;;;;4.28;0.30;;;10.40;99.90;;;;;;5020320;28;20391;-83
2022/10/06 06:06:42;;;;;;;5.28;0.30;;;10.40;99.90;;;;;;4993005;28;20034;-82
2022/10/06 06:09:13;;;;;;;4.88;0.38;;;10.40;99.90;;;;;;5021775;28;20045;-84
2022/10/06 06:11:43;;;;;;;7.68;0.30;;;10.50;99.90;;;;;;5007388;28;20041;-82
2022/10/06 06:14:11;;;;;;;7.05;0.30;;;10.50;99.90;;;;;;5007067;28;20030;-83
2022/10/06 06:16:38;;;;;;;6.22;0.30;;;10.40;99.90;;;;;;4988594;28;20394;-81
2022/10/06 06:19:05;;;;;;;6.60;0.75;;;10.40;99.90;;;;;;4991468;28;20069;-82
2022/10/06 06:21:32;;;;;;;9.80;0.47;;;10.40;99.90;;;;;;5023629;28;20036;-83
2022/10/06 06:23:58;;;;;;;4.63;0.43;;;10.50;99.90;;;;;;4988396;28;20048;-83
2022/10/06 06:26:26;;;;;;;6.82;0.40;;;10.40;99.90;;;;;;4990445;28;20026;-83
2022/10/06 06:28:56;;;;;;;8.20;0.40;;;10.40;99.90;;;;;;4990729;28;20367;-86
2022/10/06 06:31:25;;;;;;;3.45;0.30;;;10.50;99.90;;;;;;5006534;28;20025;-84
2022/10/06 06:33:54;;;;;;;3.38;0.30;;;10.50;99.90;;;;;;5007476;28;20470;-83
2022/10/06 06:36:27;;;;;;;8.25;0.52;;;10.50;99.90;;;;;;5005743;28;20033;-84
2022/10/06 06:38:55;;;;;;;4.45;0.40;;;10.50;99.90;;;;;;5007598;28;20048;-83
2022/10/06 06:41:26;;;;;;;4.03;0.30;;;10.60;99.90;;;;;;4990550;28;20045;-84
2022/10/06 06:43:59;;;;;;;4.93;0.50;;;10.60;99.90;;;;;;5012456;28;20550;-83
2022/10/06 06:46:33;;;;;;;8.57;0.52;;;10.60;99.90;;;;;;5006935;28;20026;-84
2022/10/06 06:49:03;;;;;;;3.28;0.20;;;10.70;99.90;;;;;;4991633;28;20068;-86
2022/10/06 06:51:37;;;;;;;6.47;0.50;;;10.70;99.90;;;;;;5006724;28;20026;-82
2022/10/06 06:54:03;;;;;;;6.32;0.50;;;10.80;99.90;;;;;;4991290;28;20069;-85
2022/10/06 06:56:35;;;;;;;4.65;0.30;;;10.90;99.90;;;;;;5007339;28;20066;-83
2022/10/06 06:59:09;;;;;;;3.75;0.55;;;10.80;99.90;;;;;;5007511;28;20034;-84
2022/10/06 07:01:36;;;;;;;6.47;0.40;;;11.00;99.90;;;;;;5022054;28;20057;-84
2022/10/06 07:04:03;;;;;;;4.85;0.50;;;11.00;99.90;;;;;;5007142;28;20041;-83
2022/10/06 07:06:32;;;;;;;;;;;11.00;99.90;;;;;;5008633;28;20050;-83
2022/10/06 07:09:00;;;;;;;12.15;0.60;;;11.10;99.90;;;;;;5007319;28;19984;-84
2022/10/06 07:11:29;;;;;;;13.48;0.95;;;11.20;99.90;;;;;;5010377;28;20128;-83
2022/10/06 07:14:04;;;;;;;12.35;0.73;;;11.20;99.90;;;;;;4990490;28;20026;-84
2022/10/06 07:25:11;;;;;;;9.02;0.80;;;11.40;99.90;;;;;;5005630;28;20087;-86
2022/10/06 07:27:45;;;;;;;7.47;0.50;;;11.50;99.90;;;;;;4998565;28;20438;-85
2022/10/06 07:30:19;;;;;;;6.15;0.50;;;11.50;99.90;;;;;;4990651;28;20026;-85
2022/10/06 07:32:49;;;;;;;8.30;0.90;;;11.60;99.90;;;;;;5007276;28;20042;-86
2022/10/06 07:35:16;;;;;;;9.10;1.77;;;11.70;99.90;;;;;;5002055;28;20033;-88
2022/10/06 07:37:42;;;;;;;10.02;0.80;;;11.80;99.90;;;;;;5022858;28;20037;-84
2022/10/06 07:40:09;;;;;;;8.27;0.93;;;11.90;99.90;;;;;;4990312;28;20061;-82
2022/10/06 07:42:47;;;;;;;9.68;0.60;;;12.00;99.90;;;;;;5006504;28;20045;-84
2022/10/06 07:45:37;;;;;;;8.60;0.93;;;12.10;99.90;;;;;;5000294;28;20030;-84
2022/10/06 07:48:10;;;;;;;7.93;0.60;;;12.20;99.90;;;;;;5019806;28;20080;-85
2022/10/06 07:50:39;;;;;;;;;;;12.30;99.90;;;;;;5020198;28;20494;-84
2022/10/06 07:53:07;;;;;;;10.30;0.50;;;12.30;99.90;;;;;;5022057;28;20393;-85
2022/10/06 07:55:38;;;;;;;10.82;0.82;;;12.40;99.90;;;;;;4990588;28;20022;-85
2022/10/06 07:58:24;;;;;;;11.52;0.80;;;12.50;99.90;;;;;;5014986;28;20056;-88
2022/10/06 08:00:51;;;;;;;11.40;0.93;;;12.60;99.90;;;;;;5006602;28;20243;-83
2022/10/06 08:03:18;;;;;;;14.13;0.65;;;12.70;99.90;;;;;;5006132;28;20033;-84
2022/10/06 08:05:49;;;;;;;13.25;0.80;;;12.80;99.90;;;;;;5007936;28;20458;-85
2022/10/06 08:08:15;;;;;;;6.28;0.50;;;12.90;99.90;;;;;;5004962;28;20069;-88
2022/10/06 08:10:42;;;;;;;9.95;1.27;;;13.00;99.90;;;;;;5006138;28;20108;-83
2022/10/06 08:13:09;;;;;;;11.32;0.93;;;13.10;99.90;;;;;;5019330;28;20479;-85
2022/10/06 08:15:35;;;;;;;9.75;0.65;;;13.10;99.90;;;;;;5018537;28;20053;-85
2022/10/06 08:18:02;;;;;;;8.93;1.15;;;13.10;99.90;;;;;;5007516;28;20135;-84
2022/10/06 08:20:29;;;;;;;11.60;0.98;;;13.30;99.90;;;;;;5022478;28;20472;-83
2022/10/06 08:22:55;;;;;;;5.97;0.85;;;13.40;99.90;;;;;;5006552;28;20363;-83
2022/10/06 08:25:20;;;;;;;7.57;1.05;;;13.50;99.90;;;;;;4989736;28;20114;-88
2022/10/06 08:27:46;;;;;;;8.52;0.70;;;13.40;99.90;;;;;;5005944;28;20038;-83
2022/10/06 08:30:12;;;;;;;9.48;1.02;;;13.50;99.90;;;;;;5005784;28;20092;-83
2022/10/06 08:32:41;;;;;;;9.40;1.10;;;13.60;99.90;;;;;;5007323;28;20018;-84
2022/10/06 08:35:08;;;;;;;14.80;0.70;;;13.70;99.90;;;;;;5005606;28;20088;-83
2022/10/06 08:37:34;;;;;;;5.32;0.90;;;13.70;99.90;;;;;;4989228;28;20038;-84
2022/10/06 08:39:59;;;;;;;7.07;0.60;;;14.00;99.90;;;;;;5006271;28;20033;-84
2022/10/06 08:42:28;;;;;;;10.55;0.60;;;13.90;99.90;;;;;;5006357;28;20042;-84
2022/10/06 08:45:02;;;;;;;6.28;0.52;;;14.10;99.90;;;;;;4989839;28;20319;-84
2022/10/06 08:47:32;;;;;;;6.40;0.50;;;14.10;99.90;;;;;;5006434;28;20045;-83
2022/10/06 08:49:58;;;;;;;8.73;0.82;;;14.00;99.90;;;;;;5009166;28;20034;-83
2022/10/06 08:52:33;;;;;;;7.75;0.77;;;14.10;99.90;;;;;;5007852;28;20034;-86
2022/10/06 08:55:15;;;;;;;9.52;0.60;;;14.30;99.90;;;;;;5025285;28;20060;-83
2022/10/06 08:58:05;;;;;;;9.63;0.80;;;14.20;99.90;;;;;;5009372;28;20124;-83
2022/10/06 09:00:32;;;;;;;;;;;14.20;99.90;;;;;;5023356;28;20453;-82
2022/10/06 09:02:59;;;;;;;10.23;0.50;;;14.40;99.90;;;;;;5009390;28;19909;-82
2022/10/06 09:05:27;;;;;;;5.80;0.68;;;14.60;99.90;;;;;;5008448;28;20018;-83
2022/10/06 09:08:11;;;;;;;7.18;0.85;;;14.50;99.90;;;;;;4992855;28;20109;-85
2022/10/06 09:10:36;;;;;;;10.10;0.85;;;14.50;99.90;;;;;;5007692;28;20040;-85
2022/10/06 09:13:08;;;;;;;6.43;0.50;;;14.50;99.90;;;;;;5008141;28;20030;-83
2022/10/06 09:15:57;;;;;;;8.68;0.75;;;14.60;99.90;;;;;;5009247;28;20053;-91
2022/10/06 09:18:38;;;;;;;10.75;0.63;;;14.70;99.90;;;;;;5009021;28;20041;-83
2022/10/06 09:21:16;;;;;;;8.88;0.60;;;14.60;99.90;;;;;;4989365;28;20034;-82
2022/10/06 09:23:47;;;;;;;10.75;0.60;;;14.60;99.90;;;;;;5008322;28;20427;-84
2022/10/06 09:26:21;;;;;;;9.27;1.05;;;14.70;99.90;;;;;;5006921;28;20033;-86
2022/10/06 09:28:48;;;;;;;4.32;0.30;;;14.60;99.90;;;;;;5016196;28;20053;-85
2022/10/06 09:31:30;;;;;;;8.00;0.52;;;14.70;99.90;;;;;;5009712;28;20053;-84
2022/10/06 09:34:11;;;;;;;7.30;0.52;;;14.80;99.90;;;;;;5008446;28;20530;-85
2022/10/06 09:36:58;;;;;;;9.10;0.60;;;15.10;99.90;;;;;;4992176;28;20033;-83
2022/10/06 09:39:25;;;;;;;5.57;0.40;;;15.10;99.90;;;;;;5006631;28;20425;-84
2022/10/06 09:41:53;;;;;;;5.35;0.60;;;15.20;99.90;;;;;;5006407;28;20071;-84
2022/10/06 09:44:26;;;;;;;4.40;0.52;;;15.30;99.90;;;;;;4992115;28;20065;-87
2022/10/06 09:46:52;;;;;;;5.25;0.50;;;15.20;99.90;;;;;;4991702;28;20030;-83
2022/10/06 09:49:23;;;;;;;7.18;0.55;;;15.40;99.90;;;;;;5007514;28;20037;-85
2022/10/06 09:52:11;;;;;;;4.10;0.30;;;15.30;99.90;;;;;;4991278;28;20057;-83
2022/10/06 09:54:40;;;;;;;5.35;0.40;;;15.60;99.90;;;;;;4991563;28;20496;-84
2022/10/06 09:57:25;;;;;;;7.53;0.30;;;15.50;99.90;;;;;;4988921;28;20048;-83
2022/10/06 09:59:51;;;;;;;8.05;0.40;;;15.60;99.90;;;;;;4990410;28;20042;-83
2022/10/06 10:02:33;;;;;;;4.97;0.43;;;15.50;99.90;;;;;;5008265;28;20022;-85
2022/10/06 10:04:58;;;;;;;6.47;0.40;;;15.60;99.90;;;;;;5009574;28;20064;-86
2022/10/06 10:07:27;;;;;;;5.80;0.30;;;15.50;99.90;;;;;;5008700;28;20053;-83
2022/10/06 10:10:13;;;;;;;4.00;0.40;;;15.50;99.90;;;;;;5007195;28;20104;-83
2022/10/06 10:12:49;;;;;;;13.55;0.60;;;15.70;99.90;;;;;;4990127;28;20117;-85
2022/10/06 10:15:17;;;;;;;4.72;0.38;;;15.20;99.90;;;;;;5022191;28;20112;-83
2022/10/06 10:17:58;;;;;;;5.78;0.40;;;15.30;99.90;;;;;;5005021;28;20455;-81
2022/10/06 10:20:26;;;;;;;7.90;0.50;;;15.50;99.90;;;;;;5022290;28;20044;-86
2022/10/06 10:22:54;;;;;;;3.03;0.40;;;15.50;99.90;;;;;;4990768;28;20120;-82
2022/10/06 10:25:39;;;;;;;3.97;0.30;;;15.70;99.90;;;;;;5007149;28;20478;-83
2022/10/06 10:28:21;;;;;;;3.55;0.30;;;16.00;99.90;;;;;;5023918;28;20061;-83
2022/10/06 10:30:52;;;;;;;7.72;0.30;;;16.20;99.90;;;;;;4990133;28;20034;-84
2022/10/06 10:33:38;;;;;;;7.28;0.47;;;15.70;99.90;;;;;;4993342;28;20022;-84
2022/10/06 10:36:08;;;;;;;5.65;0.45;;;15.60;99.90;;;;;;5006750;28;20121;-83
2022/10/06 10:38:39;;;;;;;5.63;0.38;;;15.80;99.90;;;;;;4991407;28;20100;-83
2022/10/06 10:41:20;;;;;;;9.75;0.32;;;15.80;99.90;;;;;;5009785;28;20033;-83
2022/10/06 10:43:54;;;;;;;5.00;0.30;;;16.00;99.90;;;;;;4990937;28;20095;-87
2022/10/06 10:46:33;;;;;;;3.13;0.28;;;15.70;99.90;;;;;;4990588;28;20484;-84
2022/10/06 10:49:05;;;;;;;9.50;0.37;;;15.40;99.90;;;;;;5007224;28;20120;-84
2022/10/06 10:51:35;;;;;;;2.80;0.30;;;15.50;99.90;;;;;;4988185;28;20022;-84
2022/10/06 10:54:26;;;;;;;8.65;0.75;;;15.60;99.90;;;;;;5007364;28;20080;-85
2022/10/06 10:56:52;;;;;;;5.65;0.30;;;15.80;99.90;;;;;;5002281;28;20022;-84
2022/10/06 10:59:53;;;;;;;3.80;0.30;;;16.20;99.90;;;;;;5008267;28;20117;-84
2022/10/06 11:02:20;;;;;;;4.00;0.30;;;16.80;99.90;;;;;;4964625;28;20046;-84
2022/10/06 11:05:01;;;;;;;5.75;0.30;;;16.10;99.90;;;;;;4965149;28;20038;-86
2022/10/06 11:07:28;;;;;;;8.43;0.35;;;15.80;99.90;;;;;;4965513;28;20269;-85
2022/10/06 11:10:22;;;;;;;2.88;0.30;;;15.40;99.90;;;;;;4939463;28;20058;-83
2022/10/06 11:13:15;;;;;;;6.03;0.50;;;15.30;99.90;;;;;;4957833;28;20038;-83
2022/10/06 11:16:13;;;;;;;4.43;0.30;;;15.30;99.90;;;;;;4965477;28;20053;-85
2022/10/06 11:18:59;;;;;;;;;;;15.70;99.90;;;;;;4949114;28;20038;-85
2022/10/06 11:21:57;;;;;;;2.38;0.32;;;16.00;99.90;;;;;;4911764;28;20397;-87
2022/10/06 11:24:44;;;;;;;4.47;0.30;;;16.10;99.90;;;;;;4912201;28;20075;-83
2022/10/06 11:27:20;;;;;;;5.53;0.73;;;16.00;99.90;;;;;;4912383;28;20039;-82
2022/10/06 11:30:19;;;;;;;4.85;0.30;;;16.50;99.90;;;;;;4898860;29;20125;-84
2022/10/06 11:33:00;;;;;;;3.60;0.30;;;16.30;99.90;;;;;;4909258;29;20039;-82
2022/10/06 11:35:40;;;;;;;4.05;0.20;;;16.30;99.90;;;;;;4923900;29;20059;-83
2022/10/06 11:38:36;;;;;;;5.70;0.35;;;16.30;99.90;;;;;;4913325;28;20042;-83
2022/10/06 11:43:43;;;;;;;3.42;0.20;;;16.60;99.90;;;;;;4991987;28;20062;-86
2022/10/06 11:46:21;;;;;;;2.87;0.50;;;17.10;99.90;;;;;;4967940;28;20030;-84
2022/10/06 11:48:52;;;;;;;2.38;0.20;;;16.90;99.90;;;;;;4991228;28;20061;-83
2022/10/06 11:51:28;;;;;;;4.97;0.47;;;17.00;99.90;;;;;;4978690;28;20121;-87
2022/10/06 11:53:54;;;;;;;5.57;0.40;;;16.70;99.90;;;;;;4949045;28;20069;-81
2022/10/06 11:56:20;;;;;;;6.47;0.40;;;17.00;99.90;;;;;;4996427;28;20559;-84
2022/10/06 11:58:54;;;;;;;4.68;0.40;;;16.90;99.90;;;;;;4965190;28;20048;-85
2022/10/06 12:01:29;;;;;;;4.18;0.30;;;16.90;99.90;;;;;;4981442;28;20044;-80
2022/10/06 12:04:13;;;;;;;3.78;0.40;;;17.00;99.90;;;;;;4966218;28;20386;-85
2022/10/06 12:06:45;;;;;;;4.68;0.40;;;16.70;99.90;;;;;;4967968;28;20042;-83
2022/10/06 12:09:37;;;;;;;7.35;0.40;;;16.60;99.90;;;;;;5008219;28;20026;-84
2022/10/06 12:12:20;;;;;;;5.63;0.38;;;16.80;99.90;;;;;;5008917;28;20034;-82
2022/10/06 12:14:49;;;;;;;6.40;0.32;;;16.80;99.90;;;;;;4969867;28;20044;-83
2022/10/06 12:17:27;;;;;;;7.75;0.40;;;16.70;99.90;;;;;;4980537;28;20038;-86
2022/10/06 12:20:21;;;;;;;5.65;0.32;;;16.60;99.90;;;;;;4963644;28;20051;-84
2022/10/06 12:22:52;;;;;;;4.40;0.30;;;16.70;99.90;;;;;;4998076;28;20039;-83
2022/10/06 12:25:21;;;;;;;5.65;0.30;;;16.90;99.90;;;;;;4982912;28;20407;-82
2022/10/06 12:28:10;;;;;;;3.70;0.40;;;16.80;99.90;;;;;;4970484;28;20026;-82
2022/10/06 12:31:09;;;;;;;5.00;0.25;;;17.00;99.90;;;;;;4983625;28;20124;-83
2022/10/06 12:33:38;;;;;;;6.67;0.30;;;16.80;99.90;;;;;;4970459;28;20022;-83
2022/10/06 12:36:13;;;;;;;3.67;0.30;;;16.80;99.90;;;;;;4983889;28;20353;-82
2022/10/06 12:39:08;;;;;;;5.60;0.38;;;16.70;99.90;;;;;;4984011;28;20121;-86
2022/10/06 12:42:06;;;;;;;4.30;0.30;;;16.80;99.90;;;;;;4982551;28;20065;-83
2022/10/06 12:44:39;;;;;;;4.93;0.30;;;16.70;99.90;;;;;;4999022;28;20533;-83
2022/10/06 12:47:29;;;;;;;7.13;0.75;;;16.50;99.90;;;;;;5013431;28;20042;-83
2022/10/06 12:50:00;;;;;;;4.22;0.30;;;16.50;99.90;;;;;;4985922;28;20499;-82
2022/10/06 12:52:59;;;;;;;4.18;0.30;;;16.40;99.90;;;;;;4983049;28;20027;-82
2022/10/06 12:55:31;;;;;;;5.25;0.45;;;16.50;99.90;;;;;;4983902;28;20030;-83
2022/10/06 12:57:57;;;;;;;7.40;0.50;;;16.50;99.90;;;;;;4982602;28;20046;-85
2022/10/06 13:00:33;;;;;;;7.60;0.40;;;16.50;99.90;;;;;;4970360;28;20112;-84
2022/10/06 13:03:01;;;;;;;4.25;0.30;;;16.50;99.90;;;;;;4982697;28;20034;-83
2022/10/06 13:05:27;;;;;;;5.75;0.50;;;16.50;99.90;;;;;;4982877;28;20034;-83
2022/10/06 13:08:02;;;;;;;5.70;0.30;;;16.50;99.90;;;;;;4969082;28;20045;-85
2022/10/06 13:10:28;;;;;;;4.75;0.20;;;16.40;99.90;;;;;;4985703;28;21149;-84
2022/10/06 13:12:56;;;;;;;6.25;0.40;;;16.60;99.90;;;;;;4998126;28;20121;-83
2022/10/06 13:15:35;;;;;;;4.35;0.30;;;16.60;99.90;;;;;;4979169;28;20048;-83
2022/10/06 13:18:14;;;;;;;4.07;0.40;;;17.20;99.90;;;;;;4985111;28;20529;-81
2022/10/06 13:20:54;;;;;;;3.70;0.40;;;17.30;99.90;;;;;;4984040;28;20034;-83
2022/10/06 13:23:24;;;;;;;5.50;0.40;;;17.30;99.90;;;;;;4983862;28;20034;-84